Terminal Aerodrome Forecast
Issued by NWS

Home | Current Version | Previous Version | Text Only | Print | Product List | Glossary On
Versions: 1 2 3 4 5 6 7 8 9 10 11 12 13 14 15 16 17 18 19 20 21
821
FTUS44 KMAF 240701 AAC
TAFPEQ
TAF AMD
KPEQ 240701Z 2407/2506 21006KT P6SM VCTS BKN080CB BKN250
      TEMPO 2407/2411 VRB15G25KT
     FM241900 23008G18KT P6SM SCT070 BKN250
     FM250100 13006KT P6SM BKN200=

USA.gov is the U.S. government's official web portal to all federal, state and local government web resources and services.